CFG92P EDDN-EDDV
Flight info
| Callsign | CFG92P |
|---|---|
| Flight time | 0h 45m |
| Altitude | 30000 |
| Route | SULUS1C/10 EDDN/10 SULUS L604 GORKO Z722 ADIBA Z190 ELNAT P605 WERRA WERA2R EDDV/09L |
| Aircraft | A333/M-SDE2E3FGHIJ1RWXYZ/S |
Departure
| Time | 2026-05-01 13:07 |
|---|---|
| Airport | Nuremberg Airport (EDDN) |
Arrival
| Time | 2026-05-01 13:52 |
|---|---|
| Airport | Hannover Airport (EDDV) |
| Time | Latitude | Longitude | Altitude | Speed | Heading |
|---|---|---|---|---|---|
| 2026-05-01 12:43 | 49.49546 | 11.07588 | 1027 ft | 0 kts | 188° |
| 2026-05-01 12:56 | 49.49553 | 11.07589 | 1031 ft | 3 kts | 188° |
| 2026-05-01 12:56 | 49.49572 | 11.07594 | 1030 ft | 3 kts | 208° |
| 2026-05-01 12:56 | 49.49587 | 11.07609 | 1029 ft | 2 kts | 217° |
| 2026-05-01 12:56 | 49.49600 | 11.07629 | 1033 ft | 3 kts | 256° |
| 2026-05-01 12:57 | 49.49602 | 11.07640 | 1031 ft | 0 kts | 276° |
| 2026-05-01 12:59 | 49.49602 | 11.07635 | 1033 ft | 2 kts | 275° |
| 2026-05-01 12:59 | 49.49611 | 11.07523 | 1030 ft | 8 kts | 278° |
| 2026-05-01 13:00 | 49.49633 | 11.07299 | 1027 ft | 10 kts | 279° |
| 2026-05-01 13:00 | 49.49668 | 11.07243 | 1030 ft | 6 kts | 347° |
| 2026-05-01 13:01 | 49.49738 | 11.07162 | 1027 ft | 5 kts | 288° |
| 2026-05-01 13:01 | 49.49749 | 11.07079 | 1022 ft | 10 kts | 279° |
| 2026-05-01 13:01 | 49.49777 | 11.06797 | 1022 ft | 15 kts | 278° |
| 2026-05-01 13:02 | 49.49792 | 11.06649 | 1021 ft | 15 kts | 279° |
| 2026-05-01 13:07 | 49.49065 | 11.16805 | 3655 ft | 229 kts | 91° |
| 2026-05-01 13:07 | 49.49261 | 11.19283 | 4286 ft | 239 kts | 79° |
| 2026-05-01 13:07 | 49.49861 | 11.21712 | 5017 ft | 246 kts | 64° |
| 2026-05-01 13:08 | 49.50860 | 11.23873 | 5793 ft | 253 kts | 50° |
| 2026-05-01 13:08 | 49.52224 | 11.25627 | 6610 ft | 258 kts | 37° |
| 2026-05-01 13:08 | 49.53767 | 11.27075 | 7414 ft | 261 kts | 33° |
| 2026-05-01 13:08 | 49.55344 | 11.28458 | 8324 ft | 260 kts | 33° |
| 2026-05-01 13:09 | 49.56931 | 11.29838 | 9110 ft | 264 kts | 30° |
| 2026-05-01 13:09 | 49.58678 | 11.30805 | 9940 ft | 271 kts | 12° |
| 2026-05-01 13:09 | 49.60552 | 11.30737 | 10695 ft | 278 kts | 351° |
| 2026-05-01 13:09 | 49.62349 | 11.29543 | 11373 ft | 287 kts | 328° |
| 2026-05-01 13:10 | 49.63776 | 11.27358 | 12037 ft | 294 kts | 306° |
| 2026-05-01 13:10 | 49.64621 | 11.24462 | 12705 ft | 301 kts | 285° |
| 2026-05-01 13:10 | 49.64797 | 11.21170 | 13043 ft | 323 kts | 264° |
| 2026-05-01 13:10 | 49.64219 | 11.17694 | 13333 ft | 347 kts | 245° |
| 2026-05-01 13:11 | 49.62887 | 11.14500 | 13823 ft | 360 kts | 226° |
| 2026-05-01 13:11 | 49.60964 | 11.11997 | 14516 ft | 365 kts | 213° |
| 2026-05-01 13:11 | 49.59031 | 11.09408 | 15242 ft | 373 kts | 229° |
| 2026-05-01 13:11 | 49.57737 | 11.05965 | 15998 ft | 379 kts | 249° |
| 2026-05-01 13:12 | 49.57255 | 11.01966 | 16738 ft | 383 kts | 270° |
| 2026-05-01 13:12 | 49.57669 | 10.97909 | 17459 ft | 386 kts | 290° |
| 2026-05-01 13:12 | 49.58935 | 10.94287 | 18185 ft | 386 kts | 310° |
| 2026-05-01 13:12 | 49.60853 | 10.91395 | 18851 ft | 387 kts | 322° |
| 2026-05-01 13:13 | 49.62964 | 10.88788 | 19240 ft | 389 kts | 324° |
| 2026-05-01 13:13 | 49.65092 | 10.86206 | 19358 ft | 389 kts | 324° |
| 2026-05-01 13:13 | 49.67246 | 10.83657 | 19360 ft | 389 kts | 327° |
| 2026-05-01 13:13 | 49.69582 | 10.81555 | 19358 ft | 388 kts | 335° |
| 2026-05-01 13:14 | 49.71980 | 10.79828 | 19358 ft | 388 kts | 339° |
| 2026-05-01 13:14 | 49.74462 | 10.78174 | 19359 ft | 388 kts | 339° |
| 2026-05-01 13:14 | 49.76947 | 10.76567 | 19358 ft | 387 kts | 340° |
| 2026-05-01 13:14 | 49.79440 | 10.74992 | 19353 ft | 387 kts | 340° |
| 2026-05-01 13:15 | 49.81945 | 10.73408 | 19356 ft | 387 kts | 340° |
| 2026-05-01 13:15 | 49.84447 | 10.71823 | 19358 ft | 387 kts | 340° |
| 2026-05-01 13:15 | 49.86938 | 10.70245 | 19360 ft | 387 kts | 340° |
| 2026-05-01 13:15 | 49.89438 | 10.68660 | 19359 ft | 387 kts | 340° |
| 2026-05-01 13:16 | 49.91936 | 10.67078 | 19361 ft | 387 kts | 340° |
| 2026-05-01 13:16 | 49.94399 | 10.65517 | 19360 ft | 387 kts | 340° |
| 2026-05-01 13:16 | 49.96899 | 10.63929 | 19358 ft | 388 kts | 340° |
| 2026-05-01 13:17 | 50.04384 | 10.59164 | 19360 ft | 387 kts | 340° |
| 2026-05-01 13:17 | 50.06881 | 10.57573 | 19363 ft | 388 kts | 340° |
| 2026-05-01 13:18 | 50.11884 | 10.54400 | 19363 ft | 388 kts | 340° |
| 2026-05-01 13:18 | 50.14391 | 10.52825 | 19363 ft | 389 kts | 340° |
| 2026-05-01 13:18 | 50.16879 | 10.51175 | 19361 ft | 389 kts | 340° |
| 2026-05-01 13:18 | 50.19420 | 10.49723 | 19361 ft | 388 kts | 343° |
| 2026-05-01 13:19 | 50.21999 | 10.48519 | 19362 ft | 387 kts | 349° |
| 2026-05-01 13:19 | 50.24633 | 10.47655 | 19359 ft | 387 kts | 351° |
| 2026-05-01 13:19 | 50.29924 | 10.46128 | 19360 ft | 386 kts | 352° |
| 2026-05-01 13:20 | 50.32581 | 10.45386 | 19576 ft | 389 kts | 352° |
| 2026-05-01 13:20 | 50.35257 | 10.44633 | 20211 ft | 391 kts | 352° |
| 2026-05-01 13:20 | 50.37937 | 10.43868 | 20912 ft | 392 kts | 352° |
| 2026-05-01 13:21 | 50.43324 | 10.42301 | 22155 ft | 397 kts | 351° |
| 2026-05-01 13:21 | 50.46051 | 10.41498 | 22760 ft | 400 kts | 351° |
| 2026-05-01 13:21 | 50.48755 | 10.40699 | 23229 ft | 402 kts | 351° |
| 2026-05-01 13:21 | 50.51499 | 10.39871 | 23353 ft | 403 kts | 349° |
| 2026-05-01 13:22 | 50.54211 | 10.38661 | 23360 ft | 405 kts | 342° |
| 2026-05-01 13:22 | 50.56786 | 10.36825 | 23359 ft | 408 kts | 333° |
| 2026-05-01 13:22 | 50.59239 | 10.34590 | 23361 ft | 408 kts | 330° |
| 2026-05-01 13:22 | 50.61641 | 10.32193 | 23359 ft | 409 kts | 328° |
| 2026-05-01 13:23 | 50.64013 | 10.29707 | 23354 ft | 409 kts | 327° |
| 2026-05-01 13:23 | 50.66371 | 10.27178 | 23355 ft | 410 kts | 327° |
| 2026-05-01 13:23 | 50.68733 | 10.24633 | 23357 ft | 411 kts | 327° |
| 2026-05-01 13:23 | 50.71091 | 10.22100 | 23356 ft | 410 kts | 328° |
| 2026-05-01 13:24 | 50.73454 | 10.19573 | 23260 ft | 410 kts | 327° |
| 2026-05-01 13:24 | 50.75809 | 10.17064 | 23004 ft | 407 kts | 327° |
| 2026-05-01 13:24 | 50.78156 | 10.14565 | 22747 ft | 406 kts | 327° |
| 2026-05-01 13:25 | 50.82797 | 10.09628 | 22204 ft | 405 kts | 328° |
| 2026-05-01 13:25 | 50.85142 | 10.07131 | 21943 ft | 404 kts | 328° |
| 2026-05-01 13:25 | 50.87467 | 10.04653 | 21687 ft | 404 kts | 327° |
| 2026-05-01 13:25 | 50.89796 | 10.02167 | 21420 ft | 402 kts | 328° |
| 2026-05-01 13:26 | 50.92111 | 9.99690 | 21149 ft | 400 kts | 327° |
| 2026-05-01 13:26 | 50.94415 | 9.97223 | 20927 ft | 399 kts | 327° |
| 2026-05-01 13:26 | 50.96716 | 9.94757 | 20669 ft | 398 kts | 327° |
| 2026-05-01 13:26 | 50.99007 | 9.92296 | 20414 ft | 398 kts | 327° |
| 2026-05-01 13:27 | 51.01296 | 9.89832 | 20170 ft | 397 kts | 327° |
| 2026-05-01 13:27 | 51.03583 | 9.87367 | 19929 ft | 397 kts | 327° |
| 2026-05-01 13:27 | 51.08139 | 9.82446 | 19443 ft | 394 kts | 327° |
| 2026-05-01 13:28 | 51.12640 | 9.77581 | 18975 ft | 392 kts | 327° |
| 2026-05-01 13:28 | 51.14892 | 9.75142 | 18738 ft | 391 kts | 327° |
| 2026-05-01 13:29 | 51.19525 | 9.70687 | 18206 ft | 387 kts | 341° |
| 2026-05-01 13:29 | 51.24770 | 9.69855 | 17681 ft | 378 kts | 6° |
| 2026-05-01 13:30 | 51.35197 | 9.71485 | 16490 ft | 373 kts | 8° |
| 2026-05-01 13:31 | 51.40171 | 9.72291 | 15766 ft | 341 kts | 8° |
| 2026-05-01 13:31 | 51.46804 | 9.72615 | 14696 ft | 311 kts | 349° |
| 2026-05-01 13:32 | 51.50743 | 9.69701 | 13980 ft | 314 kts | 329° |
| 2026-05-01 13:33 | 51.56229 | 9.64061 | 12803 ft | 309 kts | 328° |
| 2026-05-01 13:33 | 51.59841 | 9.60349 | 12051 ft | 307 kts | 328° |
| 2026-05-01 13:34 | 51.63430 | 9.56671 | 11312 ft | 304 kts | 328° |
| 2026-05-01 13:34 | 51.66985 | 9.53028 | 10584 ft | 302 kts | 327° |
| 2026-05-01 13:35 | 51.70766 | 9.50322 | 9855 ft | 299 kts | 344° |
| 2026-05-01 13:35 | 51.72794 | 9.49410 | 9456 ft | 298 kts | 346° |
| 2026-05-01 13:35 | 51.76756 | 9.47691 | 8702 ft | 295 kts | 346° |
| 2026-05-01 13:36 | 51.78735 | 9.46826 | 8316 ft | 294 kts | 346° |
| 2026-05-01 13:36 | 51.80704 | 9.45963 | 7954 ft | 293 kts | 346° |
| 2026-05-01 13:36 | 51.84625 | 9.44238 | 7219 ft | 290 kts | 346° |
| 2026-05-01 13:37 | 51.86572 | 9.43377 | 6860 ft | 289 kts | 346° |
| 2026-05-01 13:37 | 51.88506 | 9.42520 | 6485 ft | 287 kts | 346° |
| 2026-05-01 13:37 | 51.90437 | 9.41669 | 6108 ft | 287 kts | 345° |
| 2026-05-01 13:37 | 51.92357 | 9.40812 | 5716 ft | 286 kts | 346° |
| 2026-05-01 13:38 | 51.96130 | 9.39134 | 5339 ft | 276 kts | 345° |
| 2026-05-01 13:38 | 51.97968 | 9.38319 | 5341 ft | 277 kts | 345° |
| 2026-05-01 13:38 | 51.99833 | 9.37492 | 5340 ft | 278 kts | 345° |
| 2026-05-01 13:39 | 52.01697 | 9.36665 | 5343 ft | 278 kts | 345° |
| 2026-05-01 13:39 | 52.03554 | 9.35839 | 5239 ft | 277 kts | 345° |
| 2026-05-01 13:39 | 52.05411 | 9.35004 | 5011 ft | 276 kts | 346° |
| 2026-05-01 13:39 | 52.07285 | 9.34466 | 4966 ft | 273 kts | 5° |
| 2026-05-01 13:40 | 52.09150 | 9.34912 | 4961 ft | 271 kts | 8° |
| 2026-05-01 13:40 | 52.11028 | 9.34581 | 4968 ft | 274 kts | 345° |
| 2026-05-01 13:40 | 52.12796 | 9.33427 | 4970 ft | 275 kts | 330° |
| 2026-05-01 13:40 | 52.14485 | 9.31980 | 4965 ft | 275 kts | 335° |
| 2026-05-01 13:41 | 52.16242 | 9.30753 | 4964 ft | 275 kts | 339° |
| 2026-05-01 13:41 | 52.18036 | 9.29689 | 4958 ft | 274 kts | 342° |
| 2026-05-01 13:41 | 52.19849 | 9.28731 | 4892 ft | 274 kts | 343° |
| 2026-05-01 13:41 | 52.21675 | 9.27822 | 4771 ft | 274 kts | 343° |
| 2026-05-01 13:42 | 52.23533 | 9.27181 | 4633 ft | 273 kts | 357° |
| 2026-05-01 13:42 | 52.25388 | 9.27232 | 4511 ft | 266 kts | 6° |
| 2026-05-01 13:42 | 52.27205 | 9.27475 | 4384 ft | 258 kts | 8° |
| 2026-05-01 13:42 | 52.28959 | 9.27747 | 4267 ft | 249 kts | 8° |
| 2026-05-01 13:43 | 52.30658 | 9.28007 | 4149 ft | 241 kts | 8° |
| 2026-05-01 13:43 | 52.32312 | 9.28257 | 4011 ft | 235 kts | 8° |
| 2026-05-01 13:43 | 52.33920 | 9.28502 | 3900 ft | 228 kts | 8° |
| 2026-05-01 13:43 | 52.35488 | 9.28735 | 3786 ft | 224 kts | 8° |
| 2026-05-01 13:44 | 52.37022 | 9.28961 | 3654 ft | 219 kts | 8° |
| 2026-05-01 13:44 | 52.38526 | 9.29188 | 3533 ft | 214 kts | 9° |
| 2026-05-01 13:44 | 52.39993 | 9.29407 | 3405 ft | 209 kts | 8° |
| 2026-05-01 13:44 | 52.41439 | 9.29617 | 3286 ft | 208 kts | 7° |
| 2026-05-01 13:45 | 52.42831 | 9.29817 | 3197 ft | 193 kts | 8° |
| 2026-05-01 13:45 | 52.44112 | 9.30004 | 3099 ft | 175 kts | 8° |
| 2026-05-01 13:45 | 52.45248 | 9.30199 | 2956 ft | 154 kts | 14° |
| 2026-05-01 13:45 | 52.46210 | 9.30709 | 2981 ft | 144 kts | 32° |
| 2026-05-01 13:46 | 52.46988 | 9.31699 | 2962 ft | 141 kts | 54° |
| 2026-05-01 13:46 | 52.47479 | 9.33064 | 2967 ft | 138 kts | 75° |
| 2026-05-01 13:46 | 52.47634 | 9.34574 | 2957 ft | 133 kts | 93° |
| 2026-05-01 13:46 | 52.47608 | 9.36087 | 2979 ft | 132 kts | 97° |
| 2026-05-01 13:47 | 52.47565 | 9.37584 | 2963 ft | 131 kts | 96° |
| 2026-05-01 13:47 | 52.47520 | 9.39085 | 2980 ft | 131 kts | 97° |
| 2026-05-01 13:47 | 52.47476 | 9.40582 | 2961 ft | 131 kts | 96° |
| 2026-05-01 13:47 | 52.47435 | 9.42086 | 2929 ft | 133 kts | 96° |
| 2026-05-01 13:48 | 52.47393 | 9.43604 | 2700 ft | 132 kts | 96° |
| 2026-05-01 13:48 | 52.47354 | 9.45099 | 2522 ft | 131 kts | 97° |
| 2026-05-01 13:48 | 52.47312 | 9.46592 | 2349 ft | 132 kts | 95° |
| 2026-05-01 13:48 | 52.47275 | 9.48111 | 2176 ft | 132 kts | 96° |
| 2026-05-01 13:49 | 52.47239 | 9.49597 | 2002 ft | 130 kts | 97° |
| 2026-05-01 13:49 | 52.47196 | 9.51105 | 1850 ft | 133 kts | 95° |
| 2026-05-01 13:49 | 52.47159 | 9.52601 | 1656 ft | 130 kts | 97° |
| 2026-05-01 13:49 | 52.47134 | 9.53573 | 1540 ft | 130 kts | 94° |
| 2026-05-01 13:50 | 52.47097 | 9.55063 | 1412 ft | 130 kts | 94° |
| 2026-05-01 13:50 | 52.47060 | 9.56568 | 1222 ft | 131 kts | 96° |
| 2026-05-01 13:50 | 52.47007 | 9.58526 | 935 ft | 128 kts | 94° |
| 2026-05-01 13:50 | 52.46983 | 9.59498 | 796 ft | 127 kts | 95° |
| 2026-05-01 13:51 | 52.46951 | 9.60895 | 677 ft | 119 kts | 94° |
| 2026-05-01 13:51 | 52.46899 | 9.62294 | 536 ft | 124 kts | 95° |
| 2026-05-01 13:51 | 52.46876 | 9.63659 | 369 ft | 117 kts | 94° |
| 2026-05-01 13:51 | 52.46831 | 9.64942 | 238 ft | 107 kts | 94° |
| 2026-05-01 13:52 | 52.46802 | 9.66081 | 185 ft | 81 kts | 94° |
| 2026-05-01 13:52 | 52.46789 | 9.66570 | 183 ft | 21 kts | 93° |
| 2026-05-01 13:52 | 52.46781 | 9.66807 | 199 ft | 21 kts | 92° |
| 2026-05-01 13:52 | 52.46773 | 9.67066 | 183 ft | 24 kts | 93° |
| 2026-05-01 13:53 | 52.46764 | 9.67334 | 183 ft | 24 kts | 92° |
| 2026-05-01 13:53 | 52.46752 | 9.67812 | 196 ft | 18 kts | 91° |
| 2026-05-01 13:53 | 52.46729 | 9.68013 | 192 ft | 17 kts | 117° |
| 2026-05-01 13:54 | 52.46648 | 9.68148 | 183 ft | 18 kts | 139° |
| 2026-05-01 13:54 | 52.46582 | 9.68235 | 182 ft | 6 kts | 142° |
| 2026-05-01 13:54 | 52.46548 | 9.68278 | 183 ft | 6 kts | 142° |
| 2026-05-01 13:54 | 52.46514 | 9.68321 | 197 ft | 7 kts | 142° |
| 2026-05-01 13:55 | 52.46464 | 9.68385 | 182 ft | 11 kts | 142° |
| 2026-05-01 13:55 | 52.46399 | 9.68465 | 190 ft | 11 kts | 142° |
| 2026-05-01 13:55 | 52.46338 | 9.68542 | 192 ft | 12 kts | 143° |
| 2026-05-01 13:55 | 52.46268 | 9.68630 | 192 ft | 14 kts | 142° |
| 2026-05-01 13:56 | 52.46187 | 9.68734 | 184 ft | 16 kts | 142° |
| 2026-05-01 13:56 | 52.46136 | 9.68800 | 183 ft | 9 kts | 142° |
| 2026-05-01 13:56 | 52.46077 | 9.68873 | 182 ft | 12 kts | 143° |
| 2026-05-01 13:56 | 52.46000 | 9.68966 | 180 ft | 15 kts | 143° |
| 2026-05-01 13:57 | 52.45916 | 9.69070 | 181 ft | 16 kts | 143° |
| 2026-05-01 13:57 | 52.45825 | 9.69186 | 181 ft | 17 kts | 142° |
| 2026-05-01 13:57 | 52.45803 | 9.69214 | 182 ft | 2 kts | 142° |
| 2026-05-01 13:57 | 52.45788 | 9.69234 | 182 ft | 4 kts | 142° |
| 2026-05-01 13:58 | 52.45770 | 9.69268 | 182 ft | 3 kts | 120° |
| 2026-05-01 13:58 | 52.45764 | 9.69302 | 182 ft | 5 kts | 101° |
| 2026-05-01 13:58 | 52.45752 | 9.69415 | 183 ft | 12 kts | 108° |
| 2026-05-01 13:58 | 52.45703 | 9.69501 | 201 ft | 8 kts | 136° |
| 2026-05-01 13:59 | 52.45682 | 9.69580 | 197 ft | 7 kts | 102° |
| 2026-05-01 13:59 | 52.45678 | 9.69639 | 184 ft | 0 kts | 93° |
| 2026-05-01 13:59 | 52.45678 | 9.69641 | 184 ft | 1 kts | 93° |
| 2026-05-01 13:59 | 52.45678 | 9.69651 | 184 ft | 2 kts | 93° |
| 2026-05-01 14:00 | 52.45677 | 9.69683 | 198 ft | 3 kts | 93° |
| 2026-05-01 14:00 | 52.45679 | 9.69728 | 194 ft | 4 kts | 75° |
| 2026-05-01 14:00 | 52.45693 | 9.69748 | 201 ft | 2 kts | 25° |
| 2026-05-01 14:00 | 52.45704 | 9.69747 | 192 ft | 3 kts | 0° |
| 2026-05-01 14:01 | 52.45713 | 9.69735 | 188 ft | 2 kts | 319° |
| 2026-05-01 14:01 | 52.45732 | 9.69719 | 184 ft | 0 kts | 345° |
| 2026-05-01 14:01 | 52.45735 | 9.69717 | 184 ft | 1 kts | 341° |
| 2026-05-01 14:02 | 52.45736 | 9.69717 | 184 ft | 0 kts | 346° |